sensor_id;sensor_type;location;lat;lon;timestamp;pressure;altitude;pressure_sealevel;temperature;humidity
46782;BME280;32541;46.298;11.506;2023-06-10T00:02:16;89337.69;;;15.20;94.57
46782;BME280;32541;46.298;11.506;2023-06-10T00:04:42;89333.69;;;15.23;93.28
46782;BME280;32541;46.298;11.506;2023-06-10T00:07:08;89341.06;;;15.32;90.81
46782;BME280;32541;46.298;11.506;2023-06-10T00:09:39;89340.03;;;15.12;90.84
46782;BME280;32541;46.298;11.506;2023-06-10T00:12:06;89340.16;;;15.14;89.63
46782;BME280;32541;46.298;11.506;2023-06-10T00:14:32;89340.66;;;15.11;89.74
46782;BME280;32541;46.298;11.506;2023-06-10T00:16:58;89340.34;;;15.05;90.13
46782;BME280;32541;46.298;11.506;2023-06-10T00:19:24;89336.03;;;15.15;90.42
46782;BME280;32541;46.298;11.506;2023-06-10T00:21:51;89334.78;;;15.05;90.35
46782;BME280;32541;46.298;11.506;2023-06-10T00:24:18;89339.06;;;14.94;90.97
46782;BME280;32541;46.298;11.506;2023-06-10T00:26:43;89341.44;;;14.86;90.72
46782;BME280;32541;46.298;11.506;2023-06-10T00:29:09;89336.31;;;14.94;89.51
46782;BME280;32541;46.298;11.506;2023-06-10T00:31:36;89327.38;;;14.82;90.13
46782;BME280;32541;46.298;11.506;2023-06-10T00:34:02;89320.81;;;14.75;89.75
46782;BME280;32541;46.298;11.506;2023-06-10T00:36:27;89331.16;;;14.88;88.02
46782;BME280;32541;46.298;11.506;2023-06-10T00:38:53;89324.28;;;14.76;88.26
46782;BME280;32541;46.298;11.506;2023-06-10T00:41:19;89321.91;;;14.70;88.30
46782;BME280;32541;46.298;11.506;2023-06-10T00:43:44;89320.75;;;14.62;89.86
46782;BME280;32541;46.298;11.506;2023-06-10T00:46:11;89315.63;;;14.56;90.45
46782;BME280;32541;46.298;11.506;2023-06-10T00:48:38;89321.56;;;14.51;90.45
46782;BME280;32541;46.298;11.506;2023-06-10T00:51:07;89312.94;;;14.44;90.62
46782;BME280;32541;46.298;11.506;2023-06-10T00:53:35;89313.75;;;14.47;90.41
46782;BME280;32541;46.298;11.506;2023-06-10T00:56:01;89316.75;;;14.51;90.01
46782;BME280;32541;46.298;11.506;2023-06-10T00:58:26;89307.63;;;14.49;91.17
46782;BME280;32541;46.298;11.506;2023-06-10T01:00:52;89303.44;;;14.61;90.78
46782;BME280;32541;46.298;11.506;2023-06-10T01:03:18;89313.81;;;14.61;89.96
46782;BME280;32541;46.298;11.506;2023-06-10T01:05:47;89315.63;;;14.56;90.21
46782;BME280;32541;46.298;11.506;2023-06-10T01:08:31;89307.00;;;14.50;90.72
46782;BME280;32541;46.298;11.506;2023-06-10T01:11:00;89304.03;;;14.46;91.07
46782;BME280;32541;46.298;11.506;2023-06-10T01:13:27;89300.53;;;14.45;91.24
46782;BME280;32541;46.298;11.506;2023-06-10T01:15:57;89296.44;;;14.46;90.61
46782;BME280;32541;46.298;11.506;2023-06-10T01:18:23;89296.97;;;14.57;90.51
46782;BME280;32541;46.298;11.506;2023-06-10T01:20:49;89295.41;;;14.40;89.83
46782;BME280;32541;46.298;11.506;2023-06-10T01:23:15;89288.81;;;14.33;91.15
46782;BME280;32541;46.298;11.506;2023-06-10T01:25:45;89290.63;;;14.29;91.96
46782;BME280;32541;46.298;11.506;2023-06-10T01:28:40;89292.06;;;14.30;91.98
46782;BME280;32541;46.298;11.506;2023-06-10T01:31:12;89296.97;;;14.31;92.04
46782;BME280;32541;46.298;11.506;2023-06-10T01:33:43;89294.00;;;14.27;91.43
46782;BME280;32541;46.298;11.506;2023-06-10T01:36:11;89287.75;;;14.27;91.42
46782;BME280;32541;46.298;11.506;2023-06-10T01:38:40;89292.13;;;14.18;92.13
46782;BME280;32541;46.298;11.506;2023-06-10T01:41:08;89285.88;;;14.18;91.69
46782;BME280;32541;46.298;11.506;2023-06-10T01:43:37;89292.25;;;13.95;93.11
46782;BME280;32541;46.298;11.506;2023-06-10T01:46:02;89290.78;;;13.94;93.46
46782;BME280;32541;46.298;11.506;2023-06-10T01:48:28;89286.31;;;14.01;93.02
46782;BME280;32541;46.298;11.506;2023-06-10T01:50:53;89277.31;;;14.00;93.46
46782;BME280;32541;46.298;11.506;2023-06-10T01:53:21;89270.66;;;14.05;92.85
46782;BME280;32541;46.298;11.506;2023-06-10T01:55:46;89265.41;;;13.98;92.72
46782;BME280;32541;46.298;11.506;2023-06-10T01:58:11;89273.97;;;13.90;92.90
46782;BME280;32541;46.298;11.506;2023-06-10T02:00:37;89274.25;;;13.82;93.42
46782;BME280;32541;46.298;11.506;2023-06-10T02:03:02;89276.53;;;13.86;92.63
46782;BME280;32541;46.298;11.506;2023-06-10T02:05:27;89275.03;;;13.71;93.37
46782;BME280;32541;46.298;11.506;2023-06-10T02:07:53;89272.66;;;13.66;94.20
46782;BME280;32541;46.298;11.506;2023-06-10T02:10:18;89273.34;;;13.66;94.17
46782;BME280;32541;46.298;11.506;2023-06-10T02:12:47;89278.66;;;13.62;93.57
46782;BME280;32541;46.298;11.506;2023-06-10T02:15:12;89274.84;;;13.56;93.70
46782;BME280;32541;46.298;11.506;2023-06-10T02:17:37;89278.44;;;13.58;93.15
46782;BME280;32541;46.298;11.506;2023-06-10T02:20:04;89281.81;;;13.57;93.10
46782;BME280;32541;46.298;11.506;2023-06-10T02:22:32;89280.75;;;13.50;93.54
46782;BME280;32541;46.298;11.506;2023-06-10T02:24:58;89285.31;;;13.46;93.33
46782;BME280;32541;46.298;11.506;2023-06-10T02:27:24;89283.88;;;13.45;92.65
46782;BME280;32541;46.298;11.506;2023-06-10T02:29:49;89287.88;;;13.30;93.53
46782;BME280;32541;46.298;11.506;2023-06-10T02:32:15;89298.06;;;13.39;93.63
46782;BME280;32541;46.298;11.506;2023-06-10T02:34:41;89290.34;;;13.49;92.78
46782;BME280;32541;46.298;11.506;2023-06-10T02:37:08;89294.44;;;13.36;92.62
46782;BME280;32541;46.298;11.506;2023-06-10T02:39:33;89295.09;;;13.23;93.35
46782;BME280;32541;46.298;11.506;2023-06-10T02:41:58;89296.50;;;13.24;93.88
46782;BME280;32541;46.298;11.506;2023-06-10T02:44:24;89290.78;;;13.20;93.93
46782;BME280;32541;46.298;11.506;2023-06-10T02:46:49;89293.41;;;13.18;94.09
46782;BME280;32541;46.298;11.506;2023-06-10T02:49:15;89285.84;;;13.19;93.99
46782;BME280;32541;46.298;11.506;2023-06-10T02:51:41;89287.53;;;13.24;93.61
46782;BME280;32541;46.298;11.506;2023-06-10T02:54:06;89286.56;;;13.19;94.51
46782;BME280;32541;46.298;11.506;2023-06-10T02:56:32;89282.16;;;13.14;94.36
46782;BME280;32541;46.298;11.506;2023-06-10T02:58:58;89283.34;;;13.11;94.38
46782;BME280;32541;46.298;11.506;2023-06-10T03:01:24;89284.66;;;13.10;94.36
46782;BME280;32541;46.298;11.506;2023-06-10T03:03:49;89285.28;;;13.09;94.26
46782;BME280;32541;46.298;11.506;2023-06-10T03:06:15;89290.78;;;13.20;93.47
46782;BME280;32541;46.298;11.506;2023-06-10T03:08:41;89286.69;;;13.10;94.00
46782;BME280;32541;46.298;11.506;2023-06-10T03:11:06;89287.78;;;12.93;95.24
46782;BME280;32541;46.298;11.506;2023-06-10T03:13:32;89289.34;;;13.08;94.79
46782;BME280;32541;46.298;11.506;2023-06-10T03:15:57;89280.13;;;12.92;94.95
46782;BME280;32541;46.298;11.506;2023-06-10T03:18:26;89284.91;;;12.79;95.41
46782;BME280;32541;46.298;11.506;2023-06-10T03:20:52;89289.47;;;12.75;95.40
46782;BME280;32541;46.298;11.506;2023-06-10T03:23:18;89286.22;;;12.90;94.64
46782;BME280;32541;46.298;11.506;2023-06-10T03:25:44;89293.06;;;12.89;94.35
46782;BME280;32541;46.298;11.506;2023-06-10T03:28:10;89281.28;;;12.77;96.09
46782;BME280;32541;46.298;11.506;2023-06-10T03:30:35;89283.09;;;12.72;96.08
46782;BME280;32541;46.298;11.506;2023-06-10T03:33:01;89285.50;;;12.78;95.30
46782;BME280;32541;46.298;11.506;2023-06-10T03:35:26;89283.31;;;12.42;97.28
46782;BME280;32541;46.298;11.506;2023-06-10T03:37:51;89281.38;;;12.33;98.02
46782;BME280;32541;46.298;11.506;2023-06-10T03:40:17;89285.72;;;12.36;97.76
46782;BME280;32541;46.298;11.506;2023-06-10T03:42:42;89292.09;;;12.38;97.97
46782;BME280;32541;46.298;11.506;2023-06-10T03:45:10;89290.28;;;12.43;98.23
46782;BME280;32541;46.298;11.506;2023-06-10T03:47:36;89285.50;;;12.43;98.39
46782;BME280;32541;46.298;11.506;2023-06-10T03:50:05;89280.00;;;12.55;97.56
46782;BME280;32541;46.298;11.506;2023-06-10T03:52:32;89287.28;;;12.50;97.93
46782;BME280;32541;46.298;11.506;2023-06-10T03:54:57;89281.19;;;12.63;97.33
46782;BME280;32541;46.298;11.506;2023-06-10T03:57:22;89286.44;;;12.59;97.43
46782;BME280;32541;46.298;11.506;2023-06-10T03:59:48;89289.56;;;12.65;97.24
46782;BME280;32541;46.298;11.506;2023-06-10T04:02:13;89279.88;;;12.76;97.21
46782;BME280;32541;46.298;11.506;2023-06-10T04:04:39;89274.72;;;12.82;96.54
46782;BME280;32541;46.298;11.506;2023-06-10T04:07:04;89285.03;;;12.47;97.37
46782;BME280;32541;46.298;11.506;2023-06-10T04:09:30;89285.13;;;12.49;97.17
46782;BME280;32541;46.298;11.506;2023-06-10T04:11:55;89283.94;;;12.52;97.71
46782;BME280;32541;46.298;11.506;2023-06-10T04:14:21;89292.22;;;12.52;98.21
46782;BME280;32541;46.298;11.506;2023-06-10T04:16:46;89282.84;;;12.57;97.92
46782;BME280;32541;46.298;11.506;2023-06-10T04:19:12;89286.44;;;12.59;97.77
46782;BME280;32541;46.298;11.506;2023-06-10T04:21:37;89290.66;;;12.72;96.45
46782;BME280;32541;46.298;11.506;2023-06-10T04:24:03;89286.44;;;12.71;96.41
46782;BME280;32541;46.298;11.506;2023-06-10T04:26:28;89277.34;;;12.68;97.56
46782;BME280;32541;46.298;11.506;2023-06-10T04:28:53;89274.47;;;12.78;97.08
46782;BME280;32541;46.298;11.506;2023-06-10T04:31:19;89275.06;;;12.88;95.07
46782;BME280;32541;46.298;11.506;2023-06-10T04:33:44;89281.53;;;12.93;95.22
46782;BME280;32541;46.298;11.506;2023-06-10T04:36:10;89289.81;;;12.93;95.15
46782;BME280;32541;46.298;11.506;2023-06-10T04:38:35;89278.41;;;12.98;95.94
46782;BME280;32541;46.298;11.506;2023-06-10T04:41:01;89277.19;;;13.01;94.60
46782;BME280;32541;46.298;11.506;2023-06-10T04:43:26;89271.59;;;12.76;95.89
46782;BME280;32541;46.298;11.506;2023-06-10T04:45:54;89276.16;;;12.60;96.66
46782;BME280;32541;46.298;11.506;2023-06-10T04:48:19;89269.91;;;12.71;97.05
46782;BME280;32541;46.298;11.506;2023-06-10T04:50:44;89269.91;;;12.71;96.51
46782;BME280;32541;46.298;11.506;2023-06-10T04:53:10;89271.72;;;12.78;97.46
46782;BME280;32541;46.298;11.506;2023-06-10T04:55:35;89265.97;;;12.86;98.66
46782;BME280;32541;46.298;11.506;2023-06-10T04:58:01;89275.53;;;12.96;98.53
46782;BME280;32541;46.298;11.506;2023-06-10T05:00:27;89274.34;;;13.11;98.46
46782;BME280;32541;46.298;11.506;2023-06-10T05:02:52;89276.34;;;13.22;98.20
46782;BME280;32541;46.298;11.506;2023-06-10T05:05:18;89271.91;;;13.28;97.70
46782;BME280;32541;46.298;11.506;2023-06-10T05:07:43;89271.88;;;13.40;97.04
46782;BME280;32541;46.298;11.506;2023-06-10T05:10:09;89272.47;;;13.50;95.92
46782;BME280;32541;46.298;11.506;2023-06-10T05:12:34;89276.28;;;13.57;95.05
46782;BME280;32541;46.298;11.506;2023-06-10T05:15:00;89277.56;;;13.67;93.65
46782;BME280;32541;46.298;11.506;2023-06-10T05:17:26;89276.41;;;13.84;92.77
46782;BME280;32541;46.298;11.506;2023-06-10T05:19:52;89277.34;;;13.88;90.84
46782;BME280;32541;46.298;11.506;2023-06-10T05:22:18;89276.31;;;13.82;91.80
46782;BME280;32541;46.298;11.506;2023-06-10T05:24:44;89272.94;;;13.83;92.55
46782;BME280;32541;46.298;11.506;2023-06-10T05:27:10;89275.91;;;13.87;92.09
46782;BME280;32541;46.298;11.506;2023-06-10T05:29:35;89276.81;;;14.04;91.92
46782;BME280;32541;46.298;11.506;2023-06-10T05:32:01;89271.94;;;14.16;91.81
46782;BME280;32541;46.298;11.506;2023-06-10T05:34:31;89269.16;;;14.41;89.03
46782;BME280;32541;46.298;11.506;2023-06-10T05:36:56;89274.16;;;14.31;87.83
46782;BME280;32541;46.298;11.506;2023-06-10T05:39:22;89263.88;;;13.95;88.90
46782;BME280;32541;46.298;11.506;2023-06-10T05:41:48;89267.47;;;13.97;89.30
46782;BME280;32541;46.298;11.506;2023-06-10T05:44:13;89263.81;;;14.06;89.62
46782;BME280;32541;46.298;11.506;2023-06-10T05:46:38;89262.59;;;14.09;88.75
46782;BME280;32541;46.298;11.506;2023-06-10T05:49:04;89265.91;;;14.19;88.66
46782;BME280;32541;46.298;11.506;2023-06-10T05:51:29;89261.53;;;14.28;88.80
46782;BME280;32541;46.298;11.506;2023-06-10T05:53:55;89264.25;;;14.39;88.37
46782;BME280;32541;46.298;11.506;2023-06-10T05:56:20;89267.38;;;14.59;87.67
46782;BME280;32541;46.298;11.506;2023-06-10T05:58:48;89270.75;;;14.71;87.98
46782;BME280;32541;46.298;11.506;2023-06-10T06:01:13;89266.47;;;14.82;88.45
46782;BME280;32541;46.298;11.506;2023-06-10T06:03:38;89271.22;;;14.93;88.22
46782;BME280;32541;46.298;11.506;2023-06-10T06:06:04;89260.94;;;15.09;87.95
46782;BME280;32541;46.298;11.506;2023-06-10T06:08:30;89257.47;;;15.22;87.99
46782;BME280;32541;46.298;11.506;2023-06-10T06:10:55;89256.03;;;15.35;87.45
46782;BME280;32541;46.298;11.506;2023-06-10T06:13:20;89251.69;;;15.45;86.89
46782;BME280;32541;46.298;11.506;2023-06-10T06:15:46;89246.03;;;15.57;83.22
46782;BME280;32541;46.298;11.506;2023-06-10T06:18:11;89244.28;;;15.64;81.38
46782;BME280;32541;46.298;11.506;2023-06-10T06:20:37;89237.63;;;15.55;81.85
46782;BME280;32541;46.298;11.506;2023-06-10T06:23:02;89236.84;;;15.25;80.69
46782;BME280;32541;46.298;11.506;2023-06-10T06:25:27;89232.09;;;15.55;80.75
46782;BME280;32541;46.298;11.506;2023-06-10T06:27:53;89238.56;;;15.32;78.48
46782;BME280;32541;46.298;11.506;2023-06-10T06:30:18;89236.84;;;15.25;79.55
46782;BME280;32541;46.298;11.506;2023-06-10T06:32:45;89238.47;;;15.30;79.14
46782;BME280;32541;46.298;11.506;2023-06-10T06:35:10;89241.81;;;15.56;79.05
46782;BME280;32541;46.298;11.506;2023-06-10T06:37:36;89243.16;;;15.69;80.59
46782;BME280;32541;46.298;11.506;2023-06-10T06:40:02;89240.28;;;15.67;78.55
46782;BME280;32541;46.298;11.506;2023-06-10T06:42:28;89241.38;;;15.75;81.45
46782;BME280;32541;46.298;11.506;2023-06-10T06:44:54;89243.16;;;15.69;76.59
46782;BME280;32541;46.298;11.506;2023-06-10T06:47:19;89236.28;;;15.99;75.41
46782;BME280;32541;46.298;11.506;2023-06-10T06:49:48;89231.78;;;16.21;74.77
46782;BME280;32541;46.298;11.506;2023-06-10T06:52:15;89234.47;;;16.35;76.26
46782;BME280;32541;46.298;11.506;2023-06-10T06:54:41;89227.25;;;16.43;73.36
46782;BME280;32541;46.298;11.506;2023-06-10T06:57:06;89226.38;;;16.54;71.63
46782;BME280;32541;46.298;11.506;2023-06-10T06:59:32;89228.97;;;16.82;71.64
46782;BME280;32541;46.298;11.506;2023-06-10T07:01:58;89234.53;;;16.82;71.26
46782;BME280;32541;46.298;11.506;2023-06-10T07:04:24;89230.31;;;16.96;73.24
46782;BME280;32541;46.298;11.506;2023-06-10T07:06:50;89228.38;;;17.32;69.39
46782;BME280;32541;46.298;11.506;2023-06-10T07:09:15;89230.59;;;17.51;71.37
46782;BME280;32541;46.298;11.506;2023-06-10T07:11:40;89223.41;;;17.46;70.03
46782;BME280;32541;46.298;11.506;2023-06-10T07:14:06;89230.50;;;17.49;71.09
46782;BME280;32541;46.298;11.506;2023-06-10T07:16:32;89220.19;;;17.52;71.23
46782;BME280;32541;46.298;11.506;2023-06-10T07:18:57;89231.06;;;17.79;70.99
46782;BME280;32541;46.298;11.506;2023-06-10T07:21:23;89231.16;;;17.99;68.48
46782;BME280;32541;46.298;11.506;2023-06-10T07:23:49;89221.16;;;18.09;67.74
46782;BME280;32541;46.298;11.506;2023-06-10T07:26:15;89211.63;;;18.32;69.29
46782;BME280;32541;46.298;11.506;2023-06-10T07:28:41;89212.47;;;18.54;68.95
46782;BME280;32541;46.298;11.506;2023-06-10T07:31:07;89210.94;;;18.69;68.84
46782;BME280;32541;46.298;11.506;2023-06-10T07:33:32;89209.97;;;19.00;69.49
46782;BME280;32541;46.298;11.506;2023-06-10T07:35:58;89214.63;;;19.13;65.72
46782;BME280;32541;46.298;11.506;2023-06-10T07:38:24;89212.25;;;19.25;65.62
46782;BME280;32541;46.298;11.506;2023-06-10T07:40:50;89211.63;;;19.26;63.14
46782;BME280;32541;46.298;11.506;2023-06-10T07:43:16;89198.69;;;19.35;63.23
46782;BME280;32541;46.298;11.506;2023-06-10T07:45:41;89207.06;;;19.35;61.88
46782;BME280;32541;46.298;11.506;2023-06-10T07:48:07;89205.56;;;19.32;63.49
46782;BME280;32541;46.298;11.506;2023-06-10T07:50:33;89209.78;;;19.53;63.47
46782;BME280;32541;46.298;11.506;2023-06-10T07:52:58;89195.22;;;19.76;62.73
46782;BME280;32541;46.298;11.506;2023-06-10T07:55:24;89190.56;;;20.04;62.87
46782;BME280;32541;46.298;11.506;2023-06-10T07:57:51;89189.78;;;20.23;63.25
46782;BME280;32541;46.298;11.506;2023-06-10T08:00:17;89193.34;;;20.47;59.31
46782;BME280;32541;46.298;11.506;2023-06-10T08:02:42;89193.50;;;20.30;59.82
46782;BME280;32541;46.298;11.506;2023-06-10T08:05:08;89191.84;;;20.44;61.54
46782;BME280;32541;46.298;11.506;2023-06-10T08:07:33;89190.34;;;20.20;63.93
46782;BME280;32541;46.298;11.506;2023-06-10T08:09:58;89188.94;;;20.19;58.72
46782;BME280;32541;46.298;11.506;2023-06-10T08:12:24;89202.25;;;19.57;64.31
46782;BME280;32541;46.298;11.506;2023-06-10T08:14:49;89193.47;;;19.25;60.76
46782;BME280;32541;46.298;11.506;2023-06-10T08:17:15;89191.59;;;19.71;62.45
46782;BME280;32541;46.298;11.506;2023-06-10T08:19:40;89189.00;;;19.99;62.63
46782;BME280;32541;46.298;11.506;2023-06-10T08:22:05;89180.97;;;20.31;59.71
46782;BME280;32541;46.298;11.506;2023-06-10T08:24:31;89181.16;;;19.93;58.74
46782;BME280;32541;46.298;11.506;2023-06-10T08:26:56;89175.44;;;20.11;59.79
46782;BME280;32541;46.298;11.506;2023-06-10T08:29:23;89188.81;;;19.71;61.51
46782;BME280;32541;46.298;11.506;2023-06-10T08:31:48;89172.59;;;20.09;60.92
46782;BME280;32541;46.298;11.506;2023-06-10T08:34:14;89178.03;;;20.72;60.95
46782;BME280;32541;46.298;11.506;2023-06-10T08:36:39;89178.06;;;21.22;61.51
46782;BME280;32541;46.298;11.506;2023-06-10T08:39:04;89176.31;;;21.60;60.23
46782;BME280;32541;46.298;11.506;2023-06-10T08:41:35;89176.09;;;21.52;58.00
46782;BME280;32541;46.298;11.506;2023-06-10T08:44:17;89172.03;;;21.57;56.56
46782;BME280;32541;46.298;11.506;2023-06-10T08:46:47;89181.03;;;21.79;57.47
46782;BME280;32541;46.298;11.506;2023-06-10T08:49:18;89174.38;;;21.92;58.50
46782;BME280;32541;46.298;11.506;2023-06-10T08:51:50;89172.84;;;22.15;59.00
46782;BME280;32541;46.298;11.506;2023-06-10T08:54:18;89169.69;;;22.31;56.46
46782;BME280;32541;46.298;11.506;2023-06-10T08:56:48;89170.53;;;22.07;55.71
46782;BME280;32541;46.298;11.506;2023-06-10T08:59:15;89161.69;;;22.17;55.67
46782;BME280;32541;46.298;11.506;2023-06-10T09:01:42;89159.63;;;22.20;55.09
46782;BME280;32541;46.298;11.506;2023-06-10T09:04:08;89170.09;;;21.89;55.23
46782;BME280;32541;46.298;11.506;2023-06-10T09:06:33;89157.97;;;22.08;56.36
46782;BME280;32541;46.298;11.506;2023-06-10T09:08:59;89152.38;;;22.38;56.96
46782;BME280;32541;46.298;11.506;2023-06-10T09:11:25;89160.09;;;22.40;57.60
46782;BME280;32541;46.298;11.506;2023-06-10T09:13:50;89160.72;;;22.36;55.93
46782;BME280;32541;46.298;11.506;2023-06-10T09:16:16;89161.41;;;22.35;56.04
46782;BME280;32541;46.298;11.506;2023-06-10T09:18:42;89158.41;;;21.71;57.03
46782;BME280;32541;46.298;11.506;2023-06-10T09:21:08;89149.31;;;21.45;56.15
46782;BME280;32541;46.298;11.506;2023-06-10T09:23:34;89154.09;;;21.15;56.47
46782;BME280;32541;46.298;11.506;2023-06-10T09:26:00;89144.56;;;20.74;59.35
46782;BME280;32541;46.298;11.506;2023-06-10T09:28:26;89139.13;;;21.30;59.52
46782;BME280;32541;46.298;11.506;2023-06-10T09:31:05;89130.63;;;21.79;57.59
46782;BME280;32541;46.298;11.506;2023-06-10T09:33:32;89141.84;;;21.79;55.35
46782;BME280;32541;46.298;11.506;2023-06-10T09:36:01;89146.19;;;21.86;56.37
46782;BME280;32541;46.298;11.506;2023-06-10T09:38:30;89138.41;;;21.55;56.60
46782;BME280;32541;46.298;11.506;2023-06-10T09:40:57;89146.53;;;21.45;56.76
46782;BME280;32541;46.298;11.506;2023-06-10T09:43:22;89135.66;;;21.85;57.13
46782;BME280;32541;46.298;11.506;2023-06-10T09:45:51;89133.31;;;21.75;56.51
46782;BME280;32541;46.298;11.506;2023-06-10T09:48:18;89140.59;;;21.58;58.04
46782;BME280;32541;46.298;11.506;2023-06-10T09:50:44;89131.81;;;21.17;58.50
46782;BME280;32541;46.298;11.506;2023-06-10T09:53:11;89130.47;;;20.70;60.17
46782;BME280;32541;46.298;11.506;2023-06-10T09:55:40;89137.66;;;20.77;60.10
46782;BME280;32541;46.298;11.506;2023-06-10T09:58:06;89136.50;;;20.61;60.72
46782;BME280;32541;46.298;11.506;2023-06-10T10:00:32;89141.94;;;20.57;60.32
46782;BME280;32541;46.298;11.506;2023-06-10T10:02:58;89129.47;;;20.60;59.56
46782;BME280;32541;46.298;11.506;2023-06-10T10:05:24;89125.38;;;20.63;61.65
46782;BME280;32541;46.298;11.506;2023-06-10T10:07:49;89129.94;;;20.52;59.17
46782;BME280;32541;46.298;11.506;2023-06-10T10:10:19;89126.13;;;20.41;61.35
46782;BME280;32541;46.298;11.506;2023-06-10T10:12:46;89125.19;;;20.57;62.35
46782;BME280;32541;46.298;11.506;2023-06-10T10:15:12;89113.59;;;20.66;62.31
46782;BME280;32541;46.298;11.506;2023-06-10T10:18:04;89128.72;;;20.83;61.66
46782;BME280;32541;46.298;11.506;2023-06-10T10:20:33;89121.94;;;20.90;59.70
46782;BME280;32541;46.298;11.506;2023-06-10T10:23:02;89125.16;;;20.80;60.44
46782;BME280;32541;46.298;11.506;2023-06-10T10:25:33;89119.34;;;21.22;64.06
46782;BME280;32541;46.298;11.506;2023-06-10T10:28:08;89120.44;;;21.36;63.53
46782;BME280;32541;46.298;11.506;2023-06-10T10:30:42;89107.13;;;21.35;59.30
46782;BME280;32541;46.298;11.506;2023-06-10T10:33:12;89107.38;;;21.45;60.17
46782;BME280;32541;46.298;11.506;2023-06-10T10:35:41;89105.38;;;21.77;60.27
46782;BME280;32541;46.298;11.506;2023-06-10T10:38:09;89105.81;;;21.93;55.39
46782;BME280;32541;46.298;11.506;2023-06-10T10:40:34;89102.06;;;22.12;53.64
46782;BME280;32541;46.298;11.506;2023-06-10T10:43:00;89098.88;;;22.26;54.92
46782;BME280;32541;46.298;11.506;2023-06-10T10:45:30;89102.28;;;22.54;56.35
46782;BME280;32541;46.298;11.506;2023-06-10T10:47:55;89097.69;;;22.67;54.40
46782;BME280;32541;46.298;11.506;2023-06-10T10:50:22;89105.06;;;22.52;57.20
46782;BME280;32541;46.298;11.506;2023-06-10T10:53:03;89106.94;;;22.42;58.83
46782;BME280;32541;46.298;11.506;2023-06-10T10:55:29;89086.88;;;22.85;55.84
46782;BME280;32541;46.298;11.506;2023-06-10T11:03:16;89084.31;;;22.97;56.21
46782;BME280;32541;46.298;11.506;2023-06-10T11:05:46;89079.28;;;22.92;56.01
46782;BME280;32541;46.298;11.506;2023-06-10T11:10:53;89084.72;;;23.19;56.83
46782;BME280;32541;46.298;11.506;2023-06-10T11:13:22;89086.34;;;22.29;56.76
46782;BME280;32541;46.298;11.506;2023-06-10T11:15:51;89088.03;;;22.12;58.75
46782;BME280;32541;46.298;11.506;2023-06-10T11:26:21;89088.53;;;21.20;70.85
46782;BME280;32541;46.298;11.506;2023-06-10T11:31:19;89088.25;;;20.13;65.69
46782;BME280;32541;46.298;11.506;2023-06-10T11:33:54;89110.69;;;19.71;78.47
46782;BME280;32541;46.298;11.506;2023-06-10T11:36:21;89114.19;;;19.50;80.54
46782;BME280;32541;46.298;11.506;2023-06-10T11:38:46;89153.22;;;18.71;78.71
46782;BME280;32541;46.298;11.506;2023-06-10T11:41:13;89153.81;;;17.95;72.48
46782;BME280;32541;46.298;11.506;2023-06-10T11:43:48;89149.63;;;16.77;69.50
46782;BME280;32541;46.298;11.506;2023-06-10T11:46:14;89155.63;;;16.24;70.70
46782;BME280;32541;46.298;11.506;2023-06-10T11:48:49;89170.25;;;15.95;73.74
46782;BME280;32541;46.298;11.506;2023-06-10T11:51:14;89188.56;;;15.87;73.14
46782;BME280;32541;46.298;11.506;2023-06-10T11:53:40;89198.94;;;15.43;74.99
46782;BME280;32541;46.298;11.506;2023-06-10T11:56:05;89202.22;;;14.70;74.51
46782;BME280;32541;46.298;11.506;2023-06-10T11:58:31;89206.00;;;13.85;76.93
46782;BME280;32541;46.298;11.506;2023-06-10T12:00:56;89206.63;;;13.83;77.17
46782;BME280;32541;46.298;11.506;2023-06-10T12:03:23;89194.88;;;13.97;76.36
46782;BME280;32541;46.298;11.506;2023-06-10T12:05:59;89196.31;;;13.10;78.61
46782;BME280;32541;46.298;11.506;2023-06-10T12:08:25;89213.50;;;13.09;80.76
46782;BME280;32541;46.298;11.506;2023-06-10T12:10:51;89231.38;;;12.96;84.32
46782;BME280;32541;46.298;11.506;2023-06-10T12:13:16;89226.75;;;12.64;89.08
46782;BME280;32541;46.298;11.506;2023-06-10T12:15:43;89223.63;;;12.58;90.54
46782;BME280;32541;46.298;11.506;2023-06-10T12:18:16;89229.38;;;12.39;92.14
46782;BME280;32541;46.298;11.506;2023-06-10T12:20:43;89218.22;;;12.37;93.28
46782;BME280;32541;46.298;11.506;2023-06-10T12:23:09;89220.50;;;12.40;94.04
46782;BME280;32541;46.298;11.506;2023-06-10T12:25:35;89216.91;;;12.38;95.19
46782;BME280;32541;46.298;11.506;2023-06-10T12:28:02;89220.41;;;12.50;96.50
46782;BME280;32541;46.298;11.506;2023-06-10T12:30:28;89225.28;;;12.63;97.95
46782;BME280;32541;46.298;11.506;2023-06-10T12:32:54;89211.13;;;12.68;98.88
46782;BME280;32541;46.298;11.506;2023-06-10T12:35:29;89209.69;;;12.79;99.95
46782;BME280;32541;46.298;11.506;2023-06-10T12:40:36;89196.72;;;12.93;100.00
46782;BME280;32541;46.298;11.506;2023-06-10T12:43:02;89195.72;;;13.12;100.00
46782;BME280;32541;46.298;11.506;2023-06-10T12:45:32;89199.56;;;13.44;98.86
46782;BME280;32541;46.298;11.506;2023-06-10T12:48:18;89194.97;;;13.60;98.64
46782;BME280;32541;46.298;11.506;2023-06-10T12:50:46;89187.13;;;13.81;98.51
46782;BME280;32541;46.298;11.506;2023-06-10T12:53:12;89176.56;;;14.03;98.26
46782;BME280;32541;46.298;11.506;2023-06-10T12:55:38;89173.22;;;14.32;97.60
46782;BME280;32541;46.298;11.506;2023-06-10T12:58:04;89166.41;;;14.46;97.80
46782;BME280;32541;46.298;11.506;2023-06-10T13:00:30;89169.59;;;14.55;96.88
46782;BME280;32541;46.298;11.506;2023-06-10T13:02:56;89170.59;;;14.61;96.29
46782;BME280;32541;46.298;11.506;2023-06-10T13:05:22;89175.03;;;14.80;96.33
46782;BME280;32541;46.298;11.506;2023-06-10T13:07:48;89177.78;;;14.80;95.68
46782;BME280;32541;46.298;11.506;2023-06-10T13:10:15;89196.75;;;14.99;94.23